Time;durP1;ratioP1;P1;durP2;ratioP2;P2;SDS_P1;SDS_P2;PMS_P1;PMS_P2;Temp;Humidity;BMP_temperature;BMP_pressure;BME280_temperature;BME280_humidity;BME280_pressure;Samples;Min_cycle;Max_cycle;Signal;HPM_P1;HPM_P2
2023/08/04 00:02:50;;;;;;;5.68;0.95;;;16.50;99.90;;;;;;4956428;29;20034;-74
2023/08/04 00:05:16;;;;;;;8.45;1.45;;;16.60;99.90;;;;;;4939339;29;20051;-75
2023/08/04 00:07:42;;;;;;;6.57;1.77;;;16.50;99.90;;;;;;4956167;29;20508;-74
2023/08/04 00:10:09;;;;;;;4.53;0.98;;;16.50;99.90;;;;;;4956084;28;20086;-75
2023/08/04 00:12:34;;;;;;;5.65;1.10;;;16.50;99.90;;;;;;4971379;28;20208;-75
2023/08/04 00:15:00;;;;;;;11.50;1.67;;;16.50;99.90;;;;;;4956335;29;20232;-75
2023/08/04 00:17:26;;;;;;;9.18;1.52;;;16.50;99.90;;;;;;4939183;29;20089;-75
2023/08/04 00:19:52;;;;;;;5.75;1.13;;;16.50;99.90;;;;;;4956122;29;20126;-75
2023/08/04 00:22:18;;;;;;;6.93;1.98;;;16.50;99.90;;;;;;4970976;28;20089;-74
2023/08/04 00:28:24;;;;;;;4.18;1.15;;;16.40;99.90;;;;;;4955917;29;20474;-75
2023/08/04 00:30:50;;;;;;;5.95;1.30;;;16.40;99.90;;;;;;4956352;29;20063;-75
2023/08/04 00:33:15;;;;;;;5.00;1.38;;;16.40;99.90;;;;;;4938874;29;20430;-75
2023/08/04 00:35:41;;;;;;;3.67;1.40;;;16.40;99.90;;;;;;4956286;29;20042;-75
2023/08/04 00:41:47;;;;;;;2.58;1.23;;;16.30;99.90;;;;;;4955536;29;20085;-74
2023/08/04 00:44:13;;;;;;;5.68;1.30;;;16.20;99.90;;;;;;4955648;29;20039;-75
2023/08/04 00:46:39;;;;;;;9.73;1.10;;;16.20;99.90;;;;;;4937896;29;20051;-75
2023/08/04 00:49:07;;;;;;;5.13;1.98;;;16.10;99.90;;;;;;4954764;29;20050;-75
2023/08/04 00:51:33;;;;;;;7.25;1.88;;;16.10;99.90;;;;;;4969455;28;20047;-75
2023/08/04 00:53:59;;;;;;;11.70;2.05;;;16.10;99.90;;;;;;4936430;29;20043;-75
2023/08/04 00:56:28;;;;;;;7.07;1.50;;;16.10;99.90;;;;;;4955128;29;20643;-75
2023/08/04 01:02:34;;;;;;;3.50;1.10;;;16.10;99.90;;;;;;4955115;29;20078;-75
2023/08/04 01:05:01;;;;;;;7.93;1.48;;;16.00;99.90;;;;;;4955689;29;20039;-75
2023/08/04 01:07:30;;;;;;;5.38;1.80;;;16.10;99.90;;;;;;4970068;28;20073;-75
2023/08/04 01:10:18;;;;;;;6.43;1.08;;;16.10;99.90;;;;;;4970076;28;20047;-75
2023/08/04 01:13:09;;;;;;;6.28;0.80;;;16.10;99.90;;;;;;4938008;29;20051;-75
2023/08/04 01:19:15;;;;;;;5.43;0.90;;;16.10;99.90;;;;;;4955354;29;20166;-75
2023/08/04 01:21:42;;;;;;;6.93;1.05;;;16.30;99.90;;;;;;4937685;29;20075;-75
2023/08/04 01:24:08;;;;;;;6.38;0.70;;;16.10;99.90;;;;;;4955233;29;20443;-74
2023/08/04 01:26:39;;;;;;;5.88;0.60;;;16.10;99.90;;;;;;4955537;29;20043;-75
2023/08/04 01:29:06;;;;;;;4.75;1.60;;;16.10;99.90;;;;;;4954981;29;20487;-75
2023/08/04 01:31:33;;;;;;;4.13;1.17;;;16.00;99.90;;;;;;4955439;29;20461;-75
2023/08/04 01:33:58;;;;;;;8.27;1.30;;;16.10;99.90;;;;;;4955144;29;20047;-75
2023/08/04 01:36:24;;;;;;;4.53;0.90;;;16.10;99.90;;;;;;4937511;29;20096;-75
2023/08/04 01:38:50;;;;;;;6.10;1.00;;;16.10;99.90;;;;;;4954976;29;20051;-75
2023/08/04 01:41:15;;;;;;;3.95;1.35;;;16.10;99.90;;;;;;4955134;29;20129;-75
2023/08/04 01:43:41;;;;;;;4.88;1.10;;;16.10;99.90;;;;;;4937816;29;20054;-75
2023/08/04 01:46:06;;;;;;;7.60;1.30;;;16.10;99.90;;;;;;4937818;29;20047;-75
2023/08/04 01:48:32;;;;;;;7.40;1.35;;;16.10;99.90;;;;;;4954484;29;20086;-75
2023/08/04 01:50:57;;;;;;;5.57;1.98;;;16.10;99.90;;;;;;4937413;29;20491;-75
2023/08/04 01:53:23;;;;;;;4.88;0.70;;;16.00;99.90;;;;;;4954618;29;20074;-75
2023/08/04 01:55:48;;;;;;;4.85;1.13;;;16.00;99.90;;;;;;4954736;29;20553;-75
2023/08/04 01:58:14;;;;;;;3.95;1.15;;;16.00;99.90;;;;;;4937189;29;20069;-75
2023/08/04 02:00:40;;;;;;;9.30;1.85;;;16.00;99.90;;;;;;4954696;29;20046;-75
2023/08/04 02:03:05;;;;;;;7.38;1.38;;;16.00;99.90;;;;;;4937565;29;20039;-75
2023/08/04 02:05:32;;;;;;;6.80;1.30;;;16.00;99.90;;;;;;4937128;29;20102;-75
2023/08/04 02:11:38;;;;;;;6.95;1.98;;;15.90;99.90;;;;;;4954691;29;20410;-75
2023/08/04 02:14:04;;;;;;;5.03;1.00;;;16.00;99.90;;;;;;4954755;29;20032;-75
2023/08/04 02:16:29;;;;;;;6.90;1.58;;;15.90;99.90;;;;;;4937218;29;20441;-75
2023/08/04 02:19:04;;;;;;;6.57;1.77;;;15.90;99.90;;;;;;4954148;29;20077;-75
2023/08/04 02:21:30;;;;;;;6.57;1.17;;;15.90;99.90;;;;;;4954514;29;20118;-75
2023/08/04 02:23:56;;;;;;;7.57;1.52;;;15.90;99.90;;;;;;4954425;29;20073;-75
2023/08/04 02:26:21;;;;;;;6.60;1.55;;;15.90;99.90;;;;;;4954227;29;20474;-75
2023/08/04 02:28:49;;;;;;;5.45;1.08;;;15.90;99.90;;;;;;4953873;29;20039;-75
2023/08/04 02:34:56;;;;;;;2.85;1.00;;;15.90;99.90;;;;;;4954277;29;20083;-75
2023/08/04 02:37:21;;;;;;;5.10;1.33;;;15.90;99.90;;;;;;4936916;29;20039;-75
2023/08/04 02:39:47;;;;;;;5.05;1.05;;;15.90;99.90;;;;;;4936667;29;20050;-75
2023/08/04 02:42:12;;;;;;;9.10;1.77;;;15.90;99.90;;;;;;4936993;29;20058;-75
2023/08/04 02:44:38;;;;;;;3.38;1.00;;;15.90;99.90;;;;;;4954457;29;20055;-75
2023/08/04 02:47:04;;;;;;;4.60;0.90;;;16.00;99.90;;;;;;4954366;29;20082;-75
2023/08/04 02:49:29;;;;;;;5.88;1.40;;;15.90;99.90;;;;;;4954185;29;20043;-75
2023/08/04 02:51:55;;;;;;;22.40;1.48;;;15.90;99.90;;;;;;4954289;29;20047;-75
2023/08/04 02:58:01;;;;;;;4.70;0.95;;;15.90;99.90;;;;;;4954130;29;20038;-75
2023/08/04 03:00:27;;;;;;;5.72;1.13;;;15.90;99.90;;;;;;4954428;29;20039;-75
2023/08/04 03:02:52;;;;;;;4.95;0.63;;;15.90;99.90;;;;;;4937082;29;20069;-75
2023/08/04 03:05:18;;;;;;;6.28;1.00;;;15.90;99.90;;;;;;4954194;29;20144;-75
2023/08/04 03:07:43;;;;;;;4.30;0.95;;;15.80;99.90;;;;;;4936809;29;20446;-75
2023/08/04 03:10:09;;;;;;;4.30;0.80;;;15.80;99.90;;;;;;4936545;29;20044;-75
2023/08/04 03:12:34;;;;;;;2.67;0.85;;;15.80;99.90;;;;;;4953934;29;20071;-75
2023/08/04 03:15:00;;;;;;;2.83;0.63;;;15.70;99.90;;;;;;4954086;29;20051;-75
2023/08/04 03:17:26;;;;;;;3.13;1.13;;;15.70;99.90;;;;;;4955145;28;20394;-75
2023/08/04 03:19:51;;;;;;;4.18;0.85;;;15.60;99.90;;;;;;4957724;29;20082;-75
2023/08/04 03:22:17;;;;;;;4.50;0.73;;;15.60;99.90;;;;;;4940496;29;20465;-75
2023/08/04 03:24:42;;;;;;;3.30;0.80;;;15.50;99.90;;;;;;4957681;29;20043;-75
2023/08/04 03:27:08;;;;;;;2.97;0.50;;;15.50;99.90;;;;;;4939701;29;20079;-75
2023/08/04 03:33:15;;;;;;;2.90;0.75;;;15.40;99.90;;;;;;4957002;29;20042;-75
2023/08/04 03:39:21;;;;;;;1.85;0.60;;;15.30;99.90;;;;;;4957433;29;20521;-75
2023/08/04 03:41:47;;;;;;;2.70;0.70;;;15.30;99.90;;;;;;4957172;29;20039;-75
2023/08/04 03:47:53;;;;;;;3.30;0.60;;;15.20;99.90;;;;;;4956695;29;20054;-75
2023/08/04 03:50:19;;;;;;;2.17;0.50;;;15.30;99.90;;;;;;4957342;29;20047;-75
2023/08/04 03:52:45;;;;;;;5.70;0.90;;;15.30;99.90;;;;;;4939606;29;20049;-75
2023/08/04 03:58:51;;;;;;;2.15;0.50;;;15.30;99.90;;;;;;4956766;29;20082;-75
2023/08/04 04:01:16;;;;;;;3.15;0.77;;;15.40;99.90;;;;;;4956266;29;20395;-75
2023/08/04 04:03:42;;;;;;;3.60;0.60;;;15.30;99.90;;;;;;4938532;29;20070;-75
2023/08/04 04:09:48;;;;;;;3.88;0.75;;;15.40;99.90;;;;;;4956547;29;20053;-75
2023/08/04 04:12:14;;;;;;;4.43;0.60;;;15.40;99.90;;;;;;4956739;29;20065;-75
2023/08/04 04:14:39;;;;;;;2.10;0.45;;;15.60;99.90;;;;;;4956808;29;20043;-75
2023/08/04 04:17:05;;;;;;;2.65;0.55;;;15.40;99.90;;;;;;4955556;29;20045;-75
2023/08/04 04:19:30;;;;;;;5.38;0.85;;;15.40;99.90;;;;;;4955835;29;20054;-75
2023/08/04 04:21:56;;;;;;;1.98;0.60;;;15.40;99.90;;;;;;4938754;29;20043;-75
2023/08/04 04:24:22;;;;;;;4.47;0.82;;;15.40;99.90;;;;;;4956276;29;20413;-75
2023/08/04 04:26:47;;;;;;;6.90;0.75;;;15.40;99.90;;;;;;4938541;29;20082;-76
2023/08/04 04:32:53;;;;;;;4.32;0.60;;;15.40;99.90;;;;;;4955516;29;20478;-75
2023/08/04 04:35:19;;;;;;;4.63;0.60;;;15.50;99.90;;;;;;4938566;29;20035;-75
2023/08/04 04:37:44;;;;;;;7.15;0.95;;;15.50;99.90;;;;;;4955130;29;20438;-75
2023/08/04 04:43:51;;;;;;;2.17;0.70;;;15.60;99.90;;;;;;4955031;28;20127;-75
2023/08/04 04:49:57;;;;;;;6.10;0.93;;;15.60;99.90;;;;;;4955444;29;20054;-75
2023/08/04 04:56:05;;;;;;;1.42;0.52;;;15.60;99.90;;;;;;4955213;29;20097;-75
2023/08/04 04:58:31;;;;;;;1.90;0.75;;;15.70;99.90;;;;;;4955278;29;20035;-75
2023/08/04 05:01:03;;;;;;;2.03;0.80;;;15.70;99.90;;;;;;4955987;29;20054;-75
2023/08/04 05:03:29;;;;;;;2.10;0.60;;;15.70;99.90;;;;;;4955805;29;20070;-75
2023/08/04 05:05:54;;;;;;;5.03;1.00;;;15.70;99.90;;;;;;4955826;29;20038;-75
2023/08/04 05:08:20;;;;;;;4.28;0.70;;;15.70;99.90;;;;;;4937999;29;20039;-75
2023/08/04 05:10:52;;;;;;;5.03;0.88;;;15.70;99.90;;;;;;4937959;29;20511;-75
2023/08/04 05:13:18;;;;;;;5.28;0.98;;;15.80;99.90;;;;;;4956174;29;20426;-75
2023/08/04 05:19:25;;;;;;;3.92;1.05;;;15.80;99.90;;;;;;4955449;29;20054;-75
2023/08/04 05:21:51;;;;;;;3.28;0.80;;;15.80;99.90;;;;;;4955140;29;20463;-75
2023/08/04 05:24:16;;;;;;;2.60;1.27;;;15.80;99.90;;;;;;4955229;29;20058;-75
2023/08/04 05:26:42;;;;;;;4.60;1.10;;;16.30;99.90;;;;;;4955352;29;20039;-76
2023/08/04 05:32:48;;;;;;;2.67;0.80;;;15.90;99.90;;;;;;4955050;29;20053;-75
2023/08/04 05:35:16;;;;;;;3.25;1.08;;;15.90;99.90;;;;;;4938082;29;20478;-76
2023/08/04 05:37:42;;;;;;;2.65;1.15;;;16.00;99.90;;;;;;4954738;29;20050;-76
2023/08/04 05:40:08;;;;;;;5.13;0.85;;;16.00;99.90;;;;;;4954178;28;20039;-76
2023/08/04 05:46:15;;;;;;;4.88;0.95;;;16.20;99.90;;;;;;4954876;28;20155;-76
2023/08/04 05:48:41;;;;;;;6.15;1.13;;;16.70;99.90;;;;;;4968703;28;20043;-76
2023/08/04 05:51:07;;;;;;;3.90;1.05;;;17.00;99.90;;;;;;4937813;29;20054;-76
2023/08/04 05:53:33;;;;;;;4.53;0.90;;;17.20;99.90;;;;;;4954683;29;20039;-76
2023/08/04 05:55:58;;;;;;;3.42;0.90;;;17.20;99.90;;;;;;4937440;29;20549;-76
2023/08/04 05:58:24;;;;;;;3.50;0.77;;;17.20;99.90;;;;;;4937483;29;20054;-76
2023/08/04 06:04:38;;;;;;;3.40;0.57;;;17.20;99.90;;;;;;4954627;29;20086;-76
2023/08/04 06:07:04;;;;;;;3.35;0.73;;;17.20;99.90;;;;;;4937158;29;20055;-76
2023/08/04 06:09:29;;;;;;;2.47;0.60;;;17.20;99.90;;;;;;4921365;29;20057;-76
2023/08/04 06:11:55;;;;;;;2.10;0.60;;;17.20;99.90;;;;;;4937735;29;20106;-76
2023/08/04 06:14:20;;;;;;;3.60;0.85;;;17.20;99.90;;;;;;4955036;29;20094;-76
2023/08/04 06:20:27;;;;;;;3.00;0.60;;;17.20;99.90;;;;;;4954568;29;20129;-76
2023/08/04 06:26:33;;;;;;;6.57;1.00;;;17.30;99.90;;;;;;4953110;29;20062;-76
2023/08/04 06:32:39;;;;;;;3.33;0.55;;;17.30;99.90;;;;;;4952216;29;20034;-76
2023/08/04 06:35:05;;;;;;;2.67;0.73;;;17.60;99.90;;;;;;4935110;29;20035;-76
2023/08/04 06:37:31;;;;;;;4.90;0.95;;;17.50;99.90;;;;;;4951586;29;20122;-76
2023/08/04 06:39:56;;;;;;;2.42;0.80;;;17.40;99.90;;;;;;4951674;29;20162;-76
2023/08/04 06:42:22;;;;;;;4.47;0.75;;;17.50;99.90;;;;;;4951649;29;20050;-76
2023/08/04 06:44:48;;;;;;;4.10;0.80;;;17.60;99.90;;;;;;4934377;29;20539;-76
2023/08/04 06:47:13;;;;;;;2.95;0.65;;;17.50;99.90;;;;;;4951082;29;20043;-76
2023/08/04 06:49:41;;;;;;;2.65;1.05;;;17.60;99.90;;;;;;4934413;29;20053;-76
2023/08/04 06:55:47;;;;;;;2.80;0.80;;;17.80;99.90;;;;;;4955804;29;20034;-76
2023/08/04 06:58:13;;;;;;;2.05;0.80;;;17.80;99.90;;;;;;4937921;29;20475;-76
2023/08/04 07:04:20;;;;;;;2.58;0.80;;;17.90;99.90;;;;;;4955170;29;20475;-76
2023/08/04 07:06:46;;;;;;;3.92;0.73;;;17.90;99.90;;;;;;4956267;29;20043;-76
2023/08/04 07:09:12;;;;;;;4.80;1.10;;;17.90;99.90;;;;;;4956029;29;20498;-76
2023/08/04 07:11:37;;;;;;;3.03;0.82;;;17.90;99.90;;;;;;4956549;29;20075;-76
2023/08/04 07:14:03;;;;;;;3.05;0.70;;;18.00;99.90;;;;;;4938791;29;20049;-76
2023/08/04 07:20:10;;;;;;;4.63;0.80;;;18.10;99.90;;;;;;4955876;29;20098;-76
2023/08/04 07:22:37;;;;;;;2.85;0.80;;;18.10;99.90;;;;;;4955882;29;20043;-76
2023/08/04 07:28:44;;;;;;;3.63;1.02;;;18.30;99.90;;;;;;4956478;29;20584;-76
2023/08/04 07:31:10;;;;;;;3.25;1.13;;;18.30;99.90;;;;;;4922007;28;20046;-76
2023/08/04 07:33:36;;;;;;;4.13;1.05;;;18.40;99.90;;;;;;4922253;28;20719;-76
2023/08/04 07:36:03;;;;;;;6.03;1.10;;;18.60;99.90;;;;;;4939530;28;20039;-76
2023/08/04 07:38:29;;;;;;;2.30;0.93;;;18.60;99.90;;;;;;4921597;28;20099;-76
2023/08/04 07:40:55;;;;;;;2.13;0.80;;;18.70;99.90;;;;;;4940158;28;21174;-76
2023/08/04 07:43:21;;;;;;;2.50;0.70;;;18.90;99.90;;;;;;4919710;28;20553;-76
2023/08/04 07:45:47;;;;;;;1.55;0.82;;;18.90;99.90;;;;;;4939744;28;20129;-76
2023/08/04 07:48:13;;;;;;;8.68;0.95;;;18.90;99.90;;;;;;4918097;28;20043;-76
2023/08/04 07:50:40;;;;;;;4.32;0.98;;;19.10;99.90;;;;;;4949120;28;20415;-76
2023/08/04 07:53:07;;;;;;;5.13;0.70;;;19.00;99.90;;;;;;4935970;28;20036;-76
2023/08/04 07:55:36;;;;;;;3.40;1.08;;;18.90;99.90;;;;;;4937982;28;20051;-76
2023/08/04 07:58:11;;;;;;;4.88;0.70;;;18.90;99.90;;;;;;4937506;28;20076;-76
2023/08/04 08:00:37;;;;;;;4.57;0.70;;;18.90;99.90;;;;;;4943678;28;20967;-76
2023/08/04 08:03:02;;;;;;;5.30;0.82;;;18.90;99.90;;;;;;4939730;28;20047;-76
2023/08/04 08:05:28;;;;;;;3.10;0.80;;;19.00;99.90;;;;;;4922363;28;20134;-76
2023/08/04 08:07:54;;;;;;;2.97;0.65;;;19.10;99.90;;;;;;4936080;28;20066;-76
2023/08/04 08:10:19;;;;;;;1.80;0.70;;;19.20;99.90;;;;;;4935262;28;20066;-76
2023/08/04 08:12:45;;;;;;;5.03;1.30;;;19.40;99.90;;;;;;4924020;28;20050;-76
2023/08/04 08:15:11;;;;;;;3.50;0.70;;;19.60;99.90;;;;;;4923069;28;20035;-76
2023/08/04 08:17:38;;;;;;;3.28;0.80;;;19.90;99.90;;;;;;4939802;28;20109;-76
2023/08/04 08:20:05;;;;;;;2.90;0.63;;;20.10;99.90;;;;;;4920008;28;20047;-76
2023/08/04 08:22:30;;;;;;;3.17;0.70;;;20.20;99.90;;;;;;4938549;28;20039;-75
2023/08/04 08:24:56;;;;;;;1.98;0.50;;;20.50;99.90;;;;;;4936233;28;20058;-77
2023/08/04 08:27:23;;;;;;;1.67;0.30;;;20.50;99.90;;;;;;4950672;28;20071;-76
2023/08/04 08:29:53;;;;;;;2.00;0.60;;;20.40;99.90;;;;;;4936301;28;20047;-76
2023/08/04 08:32:18;;;;;;;1.55;0.47;;;20.20;99.90;;;;;;4939164;28;21993;-76
2023/08/04 08:34:44;;;;;;;5.07;0.93;;;20.10;99.90;;;;;;4940780;28;20066;-76
2023/08/04 08:37:10;;;;;;;5.80;1.00;;;20.20;99.90;;;;;;4937723;28;20560;-76
2023/08/04 08:39:36;;;;;;;3.03;0.90;;;19.80;99.90;;;;;;4942982;28;20138;-77
2023/08/04 08:42:02;;;;;;;2.25;0.70;;;19.60;99.90;;;;;;4922491;28;20154;-76
2023/08/04 08:44:28;;;;;;;3.10;0.95;;;19.30;99.90;;;;;;4938822;28;20054;-76
2023/08/04 08:46:54;;;;;;;2.63;0.60;;;19.10;99.90;;;;;;4931375;28;20962;-76
2023/08/04 08:49:31;;;;;;;1.25;0.60;;;18.80;99.90;;;;;;4934374;28;20039;-77
2023/08/04 08:51:58;;;;;;;1.30;0.55;;;18.70;99.90;;;;;;4933494;28;20122;-77
2023/08/04 08:54:24;;;;;;;2.65;1.02;;;18.70;99.90;;;;;;4920791;28;20047;-77
2023/08/04 08:56:52;;;;;;;1.77;0.63;;;18.60;99.90;;;;;;4939317;28;20094;-76
2023/08/04 08:59:18;;;;;;;1.35;0.52;;;18.50;99.90;;;;;;4923208;28;20043;-77
2023/08/04 09:01:44;;;;;;;1.45;0.47;;;18.50;99.90;;;;;;4938783;28;20039;-77
2023/08/04 09:04:10;;;;;;;2.20;0.77;;;18.60;99.90;;;;;;4924284;28;20153;-77
2023/08/04 09:06:35;;;;;;;2.05;0.50;;;18.70;99.90;;;;;;4937264;28;20132;-77
2023/08/04 09:09:02;;;;;;;3.42;0.50;;;18.80;99.90;;;;;;4923359;28;20054;-77
2023/08/04 09:11:29;;;;;;;2.15;0.55;;;18.90;99.90;;;;;;4939767;28;20113;-78
2023/08/04 09:13:55;;;;;;;4.85;0.75;;;19.00;99.90;;;;;;4919216;28;20050;-77
2023/08/04 09:16:32;;;;;;;2.40;0.80;;;19.10;99.90;;;;;;4932531;28;20097;-77
2023/08/04 09:19:06;;;;;;;7.82;1.00;;;19.30;99.90;;;;;;4970923;28;20506;-78
2023/08/04 09:21:32;;;;;;;1.60;0.40;;;19.30;99.90;;;;;;4953735;28;20043;-77
2023/08/04 09:27:41;;;;;;;3.83;1.38;;;19.70;99.90;;;;;;4970841;28;20402;-78
2023/08/04 09:30:08;;;;;;;2.72;0.80;;;19.90;99.90;;;;;;4954342;28;20670;-79
2023/08/04 09:32:44;;;;;;;8.77;1.85;;;20.20;99.90;;;;;;4970993;28;20057;-78
2023/08/04 09:35:10;;;;;;;4.35;1.00;;;20.30;99.90;;;;;;4955646;28;20069;-78
2023/08/04 09:37:38;;;;;;;2.03;0.50;;;20.30;99.90;;;;;;4972942;28;20405;-78
2023/08/04 09:40:20;;;;;;;3.25;0.77;;;20.40;99.90;;;;;;4973340;28;20053;-78
2023/08/04 09:42:47;;;;;;;2.45;0.63;;;20.40;99.90;;;;;;4974082;28;20050;-78
2023/08/04 09:45:17;;;;;;;3.03;0.95;;;20.60;99.90;;;;;;4973769;28;20113;-78
2023/08/04 09:47:50;;;;;;;3.63;0.70;;;20.80;99.90;;;;;;4954952;28;20102;-78
2023/08/04 09:50:18;;;;;;;2.72;0.50;;;21.20;99.90;;;;;;4973635;28;20378;-78
2023/08/04 09:52:44;;;;;;;1.60;0.57;;;21.70;99.90;;;;;;4956307;28;20034;-78
2023/08/04 09:55:10;;;;;;;3.40;1.60;;;21.70;99.90;;;;;;4955997;28;20108;-78
2023/08/04 09:57:36;;;;;;;3.35;0.60;;;21.70;99.90;;;;;;4955851;28;20510;-79
2023/08/04 10:03:48;;;;;;;2.90;0.80;;;21.50;99.90;;;;;;4974036;28;20038;-79
2023/08/04 10:06:14;;;;;;;4.30;0.80;;;21.30;99.90;;;;;;4973633;28;20073;-78
2023/08/04 10:08:40;;;;;;;1.75;0.47;;;21.20;99.90;;;;;;4972885;28;20054;-78
2023/08/04 10:14:46;;;;;;;4.25;1.00;;;20.80;99.90;;;;;;4972550;28;20029;-78
2023/08/04 10:17:12;;;;;;;3.40;0.70;;;20.70;99.90;;;;;;4955452;28;20122;-78
2023/08/04 10:19:38;;;;;;;2.53;0.85;;;20.60;99.90;;;;;;4972242;28;20470;-78
2023/08/04 10:25:58;;;;;;;8.65;1.10;;;20.90;99.90;;;;;;4973105;28;20041;-79
2023/08/04 10:28:24;;;;;;;2.47;0.63;;;21.20;99.90;;;;;;4956069;28;20144;-78
2023/08/04 10:31:02;;;;;;;2.42;0.50;;;21.50;99.90;;;;;;4955721;28;20074;-79
2023/08/04 10:33:28;;;;;;;3.10;0.60;;;22.00;99.90;;;;;;4954980;28;20086;-79
2023/08/04 10:36:10;;;;;;;4.32;0.73;;;22.30;99.90;;;;;;4954539;28;20418;-79
2023/08/04 10:42:24;;;;;;;2.78;0.50;;;22.40;99.90;;;;;;4972089;28;20473;-78
2023/08/04 10:48:35;;;;;;;1.58;0.35;;;22.50;99.90;;;;;;4971512;28;20401;-79
2023/08/04 10:54:41;;;;;;;3.45;0.75;;;23.00;99.90;;;;;;4970990;28;20034;-79
2023/08/04 10:57:07;;;;;;;3.80;0.70;;;23.10;99.90;;;;;;4954314;28;20043;-79
2023/08/04 11:03:26;;;;;;;3.10;0.73;;;23.00;99.90;;;;;;4971992;28;20082;-78
2023/08/04 11:05:53;;;;;;;2.78;0.63;;;22.90;99.90;;;;;;4972837;28;20569;-78
2023/08/04 11:12:00;;;;;;;1.95;0.60;;;22.90;99.90;;;;;;4973075;28;20046;-78
2023/08/04 11:14:25;;;;;;;3.70;0.77;;;22.60;99.90;;;;;;4972968;28;20094;-77
2023/08/04 11:16:51;;;;;;;8.32;2.05;;;22.50;99.90;;;;;;4955560;28;20047;-77
2023/08/04 11:19:20;;;;;;;2.60;0.65;;;22.10;99.90;;;;;;4955773;28;20489;-77
2023/08/04 11:21:46;;;;;;;3.13;0.80;;;21.90;99.90;;;;;;4972227;28;20047;-74
2023/08/04 11:24:11;;;;;;;5.35;1.55;;;21.80;99.90;;;;;;4954509;28;20491;-75
2023/08/04 11:26:37;;;;;;;5.03;1.05;;;22.00;99.90;;;;;;4971857;28;20501;-74
2023/08/04 11:29:04;;;;;;;3.35;0.90;;;22.00;99.90;;;;;;4954157;28;20047;-73
2023/08/04 11:35:11;;;;;;;3.45;0.73;;;22.50;99.90;;;;;;4971950;28;20113;-80
2023/08/04 11:37:37;;;;;;;4.18;0.70;;;22.70;99.90;;;;;;4956166;28;20071;-80
2023/08/04 11:40:02;;;;;;;3.45;1.00;;;22.50;99.90;;;;;;4959866;28;20042;-80
2023/08/04 11:42:28;;;;;;;3.13;0.52;;;22.70;99.90;;;;;;4977993;28;20489;-78
2023/08/04 11:44:53;;;;;;;4.80;0.60;;;22.90;99.90;;;;;;4982817;28;20035;-78
2023/08/04 11:47:19;;;;;;;6.00;1.25;;;23.00;99.90;;;;;;4961751;28;20109;-84
2023/08/04 11:49:45;;;;;;;5.22;1.17;;;23.40;99.90;;;;;;4978724;28;20053;-81
2023/08/04 11:52:13;;;;;;;3.42;1.13;;;23.40;99.90;;;;;;4977948;28;20420;-79
2023/08/04 11:54:58;;;;;;;4.93;0.90;;;23.60;99.90;;;;;;4977668;28;20469;-74
2023/08/04 11:57:24;;;;;;;4.10;1.05;;;23.70;99.90;;;;;;4976323;28;20043;-77
2023/08/04 11:59:51;;;;;;;3.42;0.80;;;23.90;99.90;;;;;;4976929;28;20446;-78
2023/08/04 12:05:57;;;;;;;4.40;0.68;;;23.80;99.90;;;;;;4975483;28;20398;-77
2023/08/04 12:08:23;;;;;;;4.93;0.73;;;23.30;99.90;;;;;;4975523;28;20042;-76
2023/08/04 12:11:00;;;;;;;5.15;0.77;;;23.00;99.90;;;;;;4975538;28;20038;-73
2023/08/04 12:13:33;;;;;;;4.68;1.20;;;22.80;99.90;;;;;;4975209;28;20050;-73
2023/08/04 12:15:59;;;;;;;6.20;0.80;;;22.60;99.90;;;;;;4958069;28;20050;-74
2023/08/04 12:18:26;;;;;;;4.45;1.00;;;22.70;99.90;;;;;;4958107;28;20482;-71
2023/08/04 12:24:32;;;;;;;7.07;1.02;;;22.80;99.90;;;;;;4975496;28;20097;-75
2023/08/04 12:26:58;;;;;;;4.45;1.02;;;22.60;99.90;;;;;;4975254;28;20481;-76
2023/08/04 12:29:23;;;;;;;9.15;2.22;;;22.30;99.90;;;;;;4975688;28;20081;-75
2023/08/04 12:31:50;;;;;;;6.40;1.10;;;22.10;99.90;;;;;;4975347;28;20035;-72
2023/08/04 12:34:15;;;;;;;6.97;1.48;;;21.80;99.90;;;;;;4957916;28;20524;-75
2023/08/04 12:40:22;;;;;;;5.13;1.00;;;21.40;99.90;;;;;;4976051;28;20105;-75
2023/08/04 12:42:48;;;;;;;3.88;0.95;;;21.20;99.90;;;;;;4975880;28;20501;-74
2023/08/04 12:45:13;;;;;;;3.13;1.10;;;21.00;99.90;;;;;;4975328;28;20390;-72
2023/08/04 12:47:39;;;;;;;3.22;0.90;;;21.00;99.90;;;;;;4957202;28;20481;-75
2023/08/04 12:50:05;;;;;;;2.53;0.65;;;21.10;99.90;;;;;;4957076;28;20394;-76
2023/08/04 12:52:30;;;;;;;3.95;1.05;;;21.00;99.90;;;;;;4975175;28;20042;-80
2023/08/04 12:54:56;;;;;;;3.67;0.80;;;20.80;99.90;;;;;;4957719;28;20043;-74
2023/08/04 12:57:22;;;;;;;4.82;1.10;;;20.70;99.90;;;;;;4957337;28;20039;-74
2023/08/04 12:59:47;;;;;;;6.28;1.33;;;20.60;99.90;;;;;;4957644;28;20086;-74
2023/08/04 13:02:13;;;;;;;5.70;1.50;;;20.50;99.90;;;;;;4957194;28;20051;-73
2023/08/04 13:04:38;;;;;;;2.05;0.60;;;20.30;99.90;;;;;;4974962;28;20596;-76
2023/08/04 13:07:04;;;;;;;2.67;0.85;;;20.40;99.90;;;;;;4957258;28;20402;-73
2023/08/04 13:09:30;;;;;;;3.08;0.80;;;20.50;99.90;;;;;;4957573;28;20150;-74
2023/08/04 13:11:55;;;;;;;1.75;0.52;;;20.70;99.90;;;;;;4974507;28;20039;-75
2023/08/04 13:14:21;;;;;;;4.47;0.73;;;20.80;99.90;;;;;;4974596;28;20065;-78
2023/08/04 13:16:46;;;;;;;4.50;1.08;;;21.10;99.90;;;;;;4974251;28;20038;-78
2023/08/04 13:19:12;;;;;;;3.03;0.52;;;20.80;99.90;;;;;;4956547;28;20043;-74
2023/08/04 13:21:38;;;;;;;3.05;0.50;;;20.70;99.90;;;;;;4957162;28;20042;-76
2023/08/04 13:27:44;;;;;;;3.67;1.27;;;20.60;99.90;;;;;;4973724;28;20077;-73
2023/08/04 13:30:10;;;;;;;9.35;0.70;;;20.70;99.90;;;;;;4956539;28;20393;-77
2023/08/04 13:32:36;;;;;;;5.05;1.23;;;20.90;99.90;;;;;;4973696;28;20066;-76
2023/08/04 13:35:01;;;;;;;2.50;0.90;;;21.20;99.90;;;;;;4956205;28;20047;-76
2023/08/04 13:41:07;;;;;;;4.57;1.10;;;21.80;99.90;;;;;;4973346;28;20041;-76
2023/08/04 13:43:33;;;;;;;4.40;1.42;;;22.10;99.90;;;;;;4973651;28;20039;-76
2023/08/04 13:49:39;;;;;;;4.28;0.90;;;22.00;99.90;;;;;;4973636;28;20132;-76
2023/08/04 13:52:05;;;;;;;5.50;1.00;;;21.80;99.90;;;;;;4973383;28;20489;-76
2023/08/04 13:54:31;;;;;;;6.68;1.02;;;21.70;99.90;;;;;;4940224;28;20042;-75
2023/08/04 13:56:56;;;;;;;8.02;1.25;;;21.60;99.90;;;;;;4973481;28;20067;-76
2023/08/04 13:59:22;;;;;;;5.68;1.55;;;21.70;99.90;;;;;;4973838;28;20093;-75
2023/08/04 14:01:47;;;;;;;4.43;0.85;;;21.60;99.90;;;;;;4973124;28;20050;-75
2023/08/04 14:04:14;;;;;;;6.60;1.52;;;21.50;99.90;;;;;;4955770;28;20053;-76
2023/08/04 14:06:40;;;;;;;2.92;1.13;;;21.60;99.90;;;;;;4973126;28;20481;-76
2023/08/04 14:12:46;;;;;;;4.53;1.20;;;21.50;99.90;;;;;;4973593;28;20061;-75
2023/08/04 14:15:12;;;;;;;3.05;0.93;;;21.30;99.90;;;;;;4973200;28;20081;-75
2023/08/04 14:17:38;;;;;;;3.60;1.17;;;21.20;99.90;;;;;;4973143;28;20043;-75
2023/08/04 14:20:05;;;;;;;4.72;1.23;;;21.10;99.90;;;;;;4972290;28;20477;-75
2023/08/04 14:22:31;;;;;;;4.03;1.13;;;20.90;99.90;;;;;;4955464;28;20394;-75
2023/08/04 14:24:57;;;;;;;4.53;0.90;;;20.90;99.90;;;;;;4972796;28;20042;-75
2023/08/04 14:27:23;;;;;;;5.18;1.02;;;20.80;99.90;;;;;;4973089;28;20366;-75
2023/08/04 14:29:48;;;;;;;3.80;0.90;;;21.00;99.90;;;;;;4972732;28;20043;-75
2023/08/04 14:32:14;;;;;;;5.18;1.60;;;21.20;99.90;;;;;;4954941;28;20130;-75
2023/08/04 14:34:39;;;;;;;3.88;0.77;;;21.20;99.90;;;;;;4955981;28;20053;-76
2023/08/04 14:37:05;;;;;;;6.57;1.55;;;21.20;99.90;;;;;;4955569;28;20474;-76
2023/08/04 14:39:31;;;;;;;3.42;1.60;;;21.30;99.90;;;;;;4973181;28;20177;-75
2023/08/04 14:41:56;;;;;;;3.22;1.10;;;21.20;99.90;;;;;;4955520;28;20039;-75
2023/08/04 14:44:22;;;;;;;3.67;1.05;;;21.10;99.90;;;;;;4955330;28;20062;-75
2023/08/04 14:46:47;;;;;;;3.33;1.10;;;21.00;99.90;;;;;;4973177;28;20035;-75
2023/08/04 14:49:13;;;;;;;3.90;0.90;;;21.10;99.90;;;;;;4972490;28;20094;-75
2023/08/04 14:51:38;;;;;;;2.97;0.80;;;20.80;99.90;;;;;;4973357;28;20045;-75
2023/08/04 14:54:04;;;;;;;3.50;1.15;;;20.90;99.90;;;;;;4954877;28;20481;-75
2023/08/04 14:56:30;;;;;;;5.13;1.20;;;20.90;99.90;;;;;;4955803;28;20445;-75
2023/08/04 14:58:56;;;;;;;2.95;1.00;;;21.00;99.90;;;;;;4973183;28;20117;-75
2023/08/04 15:01:22;;;;;;;5.50;1.70;;;21.00;99.90;;;;;;4955793;28;20089;-75
2023/08/04 15:03:49;;;;;;;3.60;0.90;;;21.00;99.90;;;;;;4972726;28;20155;-75
2023/08/04 15:06:19;;;;;;;2.20;0.75;;;21.10;99.90;;;;;;4955771;28;20043;-75
2023/08/04 15:08:46;;;;;;;4.60;0.93;;;21.10;99.90;;;;;;4955537;28;20046;-75
2023/08/04 15:11:12;;;;;;;5.82;1.02;;;21.20;99.90;;;;;;4955564;28;20043;-75
2023/08/04 15:13:38;;;;;;;6.57;1.08;;;21.20;99.90;;;;;;4956798;28;20043;-75
2023/08/04 15:16:05;;;;;;;2.28;0.90;;;21.10;99.90;;;;;;4976548;28;20110;-75
2023/08/04 15:18:32;;;;;;;7.18;1.80;;;21.10;99.90;;;;;;4976848;28;20389;-75
2023/08/04 15:20:57;;;;;;;4.15;1.00;;;21.00;99.90;;;;;;4959145;28;20070;-75
2023/08/04 15:27:05;;;;;;;2.55;1.00;;;20.90;99.90;;;;;;4976315;28;20054;-75
2023/08/04 15:29:31;;;;;;;2.08;0.70;;;20.70;99.90;;;;;;4958953;28;20481;-75